createdAt,value
2023-05-31T00:00:53.034Z,13.60
2023-05-31T00:05:57.980Z,13.50
2023-05-31T00:11:01.732Z,13.40
2023-05-31T00:16:06.603Z,13.30
2023-05-31T00:21:14.913Z,13.30
2023-05-31T00:26:18.442Z,13.20
2023-05-31T00:31:23.825Z,13.20
2023-05-31T00:36:28.951Z,13.10
2023-05-31T00:41:32.526Z,13.10
2023-05-31T00:46:39.815Z,12.90
2023-05-31T00:51:44.765Z,12.80
2023-05-31T00:56:48.269Z,12.80
2023-05-31T01:01:56.485Z,12.70
2023-05-31T01:07:02.118Z,12.60
2023-05-31T01:12:15.953Z,12.60
2023-05-31T01:17:24.739Z,12.50
2023-05-31T01:22:43.344Z,12.40
2023-05-31T01:27:48.701Z,12.40
2023-05-31T01:32:53.637Z,12.30
2023-05-31T01:37:58.371Z,12.20
2023-05-31T01:43:06.261Z,12.10
2023-05-31T01:48:12.169Z,12.00
2023-05-31T01:53:15.538Z,12.00
2023-05-31T01:58:22.522Z,11.90
2023-05-31T02:03:27.182Z,12.00
2023-05-31T02:08:30.479Z,11.90
2023-05-31T02:13:36.269Z,11.80
2023-05-31T02:18:40.449Z,11.80
2023-05-31T02:23:44.307Z,11.80
2023-05-31T02:28:49.349Z,11.80
2023-05-31T02:33:53.820Z,11.70
2023-05-31T02:38:57.980Z,11.70
2023-05-31T02:44:02.647Z,11.70
2023-05-31T02:49:06.941Z,11.70
2023-05-31T02:54:11.043Z,11.60
2023-05-31T02:59:16.318Z,11.60
2023-05-31T03:04:19.630Z,11.50
2023-05-31T03:09:24.133Z,11.40
2023-05-31T03:14:29.801Z,11.40
2023-05-31T03:19:33.273Z,11.40
2023-05-31T03:24:39.197Z,11.40
2023-05-31T03:29:45.168Z,11.40
2023-05-31T03:34:49.305Z,11.40
2023-05-31T03:39:52.970Z,11.40
2023-05-31T03:45:04.366Z,11.40
2023-05-31T03:50:08.972Z,11.40
2023-05-31T03:55:12.460Z,11.50
2023-05-31T04:00:19.099Z,11.50
2023-05-31T04:05:28.393Z,11.50
2023-05-31T04:10:33.397Z,11.60
2023-05-31T04:15:38.261Z,11.60
2023-05-31T04:20:42.234Z,11.70
2023-05-31T04:25:46.552Z,11.80
2023-05-31T04:30:53.299Z,11.90
2023-05-31T04:35:58.690Z,12.10
2023-05-31T04:41:02.616Z,12.20
2023-05-31T04:46:10.504Z,12.20
2023-05-31T04:51:16.148Z,12.30
2023-05-31T04:56:20.067Z,14.10
2023-05-31T05:01:26.346Z,17.20
2023-05-31T05:06:41.930Z,19.20
2023-05-31T05:11:45.853Z,20.80
2023-05-31T05:16:51.888Z,21.80
2023-05-31T05:21:55.643Z,19.50
2023-05-31T05:27:00.391Z,17.40
2023-05-31T05:32:06.511Z,16.10
2023-05-31T05:37:10.120Z,15.40
2023-05-31T05:42:14.406Z,15.00
2023-05-31T05:47:19.227Z,14.70
2023-05-31T05:52:26.807Z,14.70
2023-05-31T05:57:30.730Z,14.80
2023-05-31T06:02:47.401Z,14.90
2023-05-31T06:07:51.188Z,15.00
2023-05-31T06:12:54.695Z,15.20
2023-05-31T06:18:00.542Z,15.30
2023-05-31T06:23:04.093Z,15.40
2023-05-31T06:28:07.540Z,15.60
2023-05-31T06:33:12.326Z,15.70
2023-05-31T06:38:19.540Z,15.80
2023-05-31T06:43:23.604Z,16.00
2023-05-31T06:54:09.050Z,16.20
2023-05-31T06:59:13.895Z,16.40
2023-05-31T07:04:18.581Z,16.60
2023-05-31T07:09:22.184Z,16.80
2023-05-31T07:14:32.496Z,16.90
2023-05-31T07:19:45.380Z,17.10
2023-05-31T07:24:48.841Z,17.30
2023-05-31T07:29:52.161Z,17.60
2023-05-31T07:35:03.397Z,17.90
2023-05-31T07:40:09.591Z,18.10
2023-05-31T07:45:13.192Z,18.40
2023-05-31T07:50:18.008Z,18.80
2023-05-31T07:55:21.627Z,19.10
2023-05-31T08:00:27.818Z,19.40
2023-05-31T08:05:34.043Z,19.70
2023-05-31T08:10:38.007Z,20.10
2023-05-31T08:15:41.384Z,20.70
2023-05-31T08:20:46.187Z,21.00
2023-05-31T08:25:52.086Z,21.40
2023-05-31T08:30:56.080Z,21.70
2023-05-31T08:36:02.256Z,21.70
2023-05-31T08:41:08.833Z,21.60
2023-05-31T08:46:13.081Z,21.90
2023-05-31T08:51:18.426Z,22.00
2023-05-31T08:56:22.882Z,21.60
2023-05-31T09:01:29.109Z,21.60
2023-05-31T09:06:34.534Z,21.60
2023-05-31T09:11:41.548Z,22.20
2023-05-31T09:16:45.488Z,22.60
2023-05-31T09:21:50.117Z,22.80
2023-05-31T09:26:55.202Z,22.80
2023-05-31T09:32:10.868Z,22.60
2023-05-31T09:37:23.968Z,22.90
2023-05-31T09:42:29.989Z,23.50
2023-05-31T09:47:33.778Z,23.70
2023-05-31T09:52:39.932Z,24.00
2023-05-31T09:57:44.900Z,24.20
2023-05-31T10:02:49.798Z,24.10
2023-05-31T10:07:55.035Z,24.10
2023-05-31T10:13:03.805Z,24.10
2023-05-31T10:18:12.956Z,23.90
2023-05-31T10:23:22.971Z,23.80
2023-05-31T10:28:32.834Z,24.00
2023-05-31T10:33:36.860Z,24.30
2023-05-31T10:38:50.266Z,24.30
2023-05-31T10:44:00.120Z,24.00
2023-05-31T10:49:07.792Z,24.00
2023-05-31T10:54:20.475Z,24.10
2023-05-31T10:59:25.417Z,23.90
2023-05-31T11:04:29.135Z,23.90
2023-05-31T11:09:34.331Z,23.90
2023-05-31T11:14:38.093Z,23.90
2023-05-31T11:19:43.712Z,23.80
2023-05-31T11:24:55.963Z,23.90
2023-05-31T11:30:02.966Z,24.00
2023-05-31T11:35:10.233Z,23.80
2023-05-31T11:40:17.258Z,23.80
2023-05-31T11:45:25.163Z,23.80
2023-05-31T11:50:29.598Z,23.90
2023-05-31T11:55:36.500Z,23.90
2023-05-31T12:00:46.526Z,23.80
2023-05-31T12:05:53.329Z,23.70
2023-05-31T12:11:04.896Z,23.90
2023-05-31T12:16:08.647Z,24.00
2023-05-31T12:21:16.602Z,24.10
2023-05-31T12:26:22.739Z,24.10
2023-05-31T12:31:33.325Z,24.30
2023-05-31T12:36:44.978Z,24.40
2023-05-31T12:41:51.444Z,24.30
2023-05-31T12:47:02.013Z,24.30
2023-05-31T12:52:08.802Z,24.40
2023-05-31T12:57:14.867Z,24.40
2023-05-31T13:02:18.227Z,24.30
2023-05-31T13:07:21.474Z,24.60
2023-05-31T13:12:26.091Z,24.90
2023-05-31T13:17:29.375Z,25.00
2023-05-31T13:22:32.876Z,25.10
2023-05-31T13:27:37.699Z,25.10
2023-05-31T13:32:41.202Z,25.20
2023-05-31T13:37:44.480Z,25.30
2023-05-31T13:42:49.174Z,25.40
2023-05-31T13:47:55.248Z,25.30
2023-05-31T13:52:58.946Z,25.50
2023-05-31T13:58:04.119Z,25.80
2023-05-31T14:03:08.152Z,25.90
2023-05-31T14:08:11.870Z,26.40
2023-05-31T14:13:16.567Z,26.90
2023-05-31T14:18:20.456Z,27.00
2023-05-31T14:23:24.063Z,26.70
2023-05-31T14:28:29.530Z,26.50
2023-05-31T14:33:34.351Z,26.60
2023-05-31T14:38:38.636Z,26.60
2023-05-31T14:43:43.843Z,26.30
2023-05-31T14:48:47.144Z,26.00
2023-05-31T14:53:51.983Z,25.90
2023-05-31T14:58:57.956Z,25.90
2023-05-31T15:04:03.890Z,26.20
2023-05-31T15:09:08.269Z,26.20
2023-05-31T15:14:15.492Z,26.40
2023-05-31T15:19:18.854Z,26.40
2023-05-31T15:24:22.558Z,26.30
2023-05-31T15:29:27.632Z,26.00
2023-05-31T15:34:31.278Z,25.60
2023-05-31T15:39:35.010Z,25.40
2023-05-31T15:44:40.162Z,25.40
2023-05-31T15:49:43.475Z,25.60
2023-05-31T15:54:47.088Z,26.00
2023-05-31T15:59:52.122Z,26.30
2023-05-31T16:04:55.771Z,26.60
2023-05-31T16:09:59.542Z,26.60
2023-05-31T16:15:05.149Z,26.70
2023-05-31T16:20:09.736Z,26.70
2023-05-31T16:25:12.794Z,27.60
2023-05-31T16:30:18.106Z,28.10
2023-05-31T16:35:21.622Z,28.50
2023-05-31T16:40:25.292Z,28.60
2023-05-31T16:45:30.556Z,28.80
2023-05-31T16:50:34.270Z,28.90
2023-05-31T16:55:37.849Z,28.60
2023-05-31T17:00:43.930Z,27.90
2023-05-31T17:05:48.610Z,27.60
2023-05-31T17:10:52.727Z,27.50
2023-05-31T17:15:57.298Z,27.70
2023-05-31T17:21:00.674Z,28.20
2023-05-31T17:26:04.404Z,28.50
2023-05-31T17:31:09.100Z,28.40
2023-05-31T17:36:12.368Z,28.30
2023-05-31T17:41:18.951Z,28.20
2023-05-31T17:46:24.707Z,28.00
2023-05-31T17:51:28.418Z,27.80
2023-05-31T17:56:31.672Z,27.50
2023-05-31T18:01:39.335Z,27.40
2023-05-31T18:06:42.750Z,27.40
2023-05-31T18:11:46.129Z,27.30
2023-05-31T18:16:51.096Z,27.20
2023-05-31T18:21:54.876Z,27.10
2023-05-31T18:27:16.900Z,26.90
2023-05-31T18:32:21.997Z,26.50
2023-05-31T18:37:26.360Z,26.10
2023-05-31T18:42:29.898Z,25.30
2023-05-31T18:47:34.978Z,24.40
2023-05-31T18:52:38.380Z,23.70
2023-05-31T18:57:41.830Z,23.20
2023-05-31T19:02:47.252Z,22.60
2023-05-31T19:07:50.574Z,22.30
2023-05-31T19:12:54.186Z,21.90
2023-05-31T19:18:09.926Z,21.50
2023-05-31T19:23:14.248Z,21.20
2023-05-31T19:28:17.924Z,20.90
2023-05-31T19:33:23.109Z,20.70
2023-05-31T19:38:29.412Z,20.50
2023-05-31T19:43:33.614Z,20.30
2023-05-31T19:48:38.722Z,20.00
2023-05-31T19:53:42.418Z,19.80
2023-05-31T19:58:47.014Z,19.60
2023-05-31T20:03:52.504Z,19.40
2023-05-31T20:08:56.227Z,19.20
2023-05-31T20:14:00.146Z,19.00
2023-05-31T20:19:05.330Z,18.80
2023-05-31T20:24:09.119Z,18.70
2023-05-31T20:29:12.775Z,18.50
2023-05-31T20:34:17.732Z,18.40
2023-05-31T20:39:21.377Z,18.30
2023-05-31T20:44:24.715Z,18.20
2023-05-31T20:49:29.337Z,18.10
2023-05-31T20:54:32.940Z,17.90
2023-05-31T20:59:36.597Z,17.70
2023-05-31T21:04:41.303Z,17.70
2023-05-31T21:09:45.322Z,17.60
2023-05-31T21:14:48.950Z,17.60
2023-05-31T21:19:53.918Z,17.60
2023-05-31T21:24:57.619Z,17.50
2023-05-31T21:30:00.890Z,17.40
2023-05-31T21:35:05.964Z,17.30
2023-05-31T21:40:09.694Z,17.30
2023-05-31T21:45:13.147Z,17.20
2023-05-31T21:50:17.856Z,17.00
2023-05-31T21:55:21.451Z,16.90
2023-05-31T22:00:24.751Z,16.70
2023-05-31T22:05:29.353Z,16.70
2023-05-31T22:10:32.519Z,16.60
2023-05-31T22:15:35.767Z,16.50
2023-05-31T22:20:40.939Z,16.50
2023-05-31T22:25:44.142Z,16.50
2023-05-31T22:30:47.423Z,16.40
2023-05-31T22:35:52.027Z,16.40
2023-05-31T22:40:55.376Z,16.40
2023-05-31T22:45:58.624Z,16.30
2023-05-31T22:51:03.531Z,16.30
2023-05-31T22:56:08.222Z,16.20
2023-05-31T23:01:11.884Z,16.20
2023-05-31T23:06:17.289Z,16.10
2023-05-31T23:11:22.830Z,16.10
2023-05-31T23:16:26.088Z,16.10
2023-05-31T23:21:30.766Z,16.00
2023-05-31T23:26:35.044Z,16.00
2023-05-31T23:31:38.400Z,15.90
2023-05-31T23:36:43.035Z,15.70
2023-05-31T23:41:46.248Z,15.60
2023-05-31T23:46:49.466Z,15.60
2023-05-31T23:51:54.180Z,15.40
2023-05-31T23:56:57.364Z,15.30
